createdAt,value
2022-07-31T00:00:15.200Z,3.90
2022-07-31T00:02:41.680Z,4.50
2022-07-31T00:05:08.335Z,5.00
2022-07-31T00:07:34.767Z,4.57
2022-07-31T00:10:01.230Z,4.53
2022-07-31T00:12:27.719Z,4.50
2022-07-31T00:14:54.250Z,4.63
2022-07-31T00:17:20.728Z,4.55
2022-07-31T00:19:47.192Z,4.60
2022-07-31T00:22:13.633Z,4.80
2022-07-31T00:24:40.146Z,5.10
2022-07-31T00:27:06.995Z,4.18
2022-07-31T00:29:33.608Z,4.47
2022-07-31T00:32:00.066Z,4.78
2022-07-31T00:34:26.494Z,5.05
2022-07-31T00:36:52.912Z,5.15
2022-07-31T00:39:19.691Z,5.15
2022-07-31T00:41:46.947Z,5.15
2022-07-31T00:44:13.912Z,4.85
2022-07-31T00:46:42.105Z,4.90
2022-07-31T00:49:11.933Z,5.20
2022-07-31T00:51:39.988Z,4.82
2022-07-31T00:54:08.242Z,4.38
2022-07-31T00:56:34.971Z,5.07
2022-07-31T00:59:01.464Z,4.32
2022-07-31T01:01:27.947Z,4.90
2022-07-31T01:03:54.783Z,4.45
2022-07-31T01:06:21.243Z,5.15
2022-07-31T01:08:47.704Z,4.07
2022-07-31T01:11:32.524Z,4.38
2022-07-31T01:14:02.054Z,5.38
2022-07-31T01:16:40.697Z,4.28
2022-07-31T01:19:42.213Z,4.15
2022-07-31T01:22:43.995Z,4.22
2022-07-31T01:25:29.458Z,4.25
2022-07-31T01:28:09.584Z,4.65
2022-07-31T01:30:45.545Z,5.07
2022-07-31T01:33:18.523Z,4.63
2022-07-31T01:36:02.382Z,3.80
2022-07-31T01:38:33.104Z,5.20
2022-07-31T01:41:05.362Z,5.00
2022-07-31T01:43:37.920Z,4.47
2022-07-31T01:46:05.795Z,4.60
2022-07-31T01:48:33.787Z,5.00
2022-07-31T01:51:02.860Z,5.05
2022-07-31T01:53:32.948Z,5.30
2022-07-31T01:56:03.610Z,4.88
2022-07-31T01:58:37.485Z,4.97
2022-07-31T02:01:11.405Z,5.18
2022-07-31T02:03:44.050Z,4.82
2022-07-31T02:06:16.207Z,4.78
2022-07-31T02:08:46.363Z,5.47
2022-07-31T02:11:17.925Z,5.60
2022-07-31T02:13:45.976Z,5.53
2022-07-31T02:16:14.218Z,6.07
2022-07-31T02:18:41.779Z,5.85
2022-07-31T02:21:15.363Z,5.65
2022-07-31T02:23:41.939Z,5.00
2022-07-31T02:26:09.637Z,5.13
2022-07-31T02:28:40.639Z,5.05
2022-07-31T02:33:38.012Z,5.38
2022-07-31T02:36:06.468Z,5.20
2022-07-31T02:38:35.337Z,5.50
2022-07-31T02:41:05.163Z,5.93
2022-07-31T02:43:33.206Z,5.43
2022-07-31T02:46:06.390Z,5.53
2022-07-31T02:48:33.175Z,5.63
2022-07-31T02:51:03.754Z,6.40
2022-07-31T02:53:31.895Z,7.03
2022-07-31T02:56:04.269Z,5.97
2022-07-31T03:01:04.931Z,5.50
2022-07-31T03:03:33.023Z,6.07
2022-07-31T03:05:59.714Z,7.25
2022-07-31T03:08:27.416Z,7.03
2022-07-31T03:13:28.779Z,6.60
2022-07-31T03:15:57.064Z,6.80
2022-07-31T03:18:25.702Z,5.85
2022-07-31T03:20:53.357Z,5.57
2022-07-31T03:23:22.037Z,6.35
2022-07-31T03:25:54.923Z,6.30
2022-07-31T03:28:22.541Z,6.05
2022-07-31T03:30:56.187Z,7.00
2022-07-31T03:33:24.965Z,5.95
2022-07-31T03:35:53.156Z,6.43
2022-07-31T03:38:38.741Z,6.78
2022-07-31T03:41:06.796Z,5.43
2022-07-31T03:43:47.112Z,5.10
2022-07-31T03:46:16.999Z,6.38
2022-07-31T03:48:43.619Z,6.00
2022-07-31T03:51:11.173Z,5.53
2022-07-31T03:53:38.203Z,5.78
2022-07-31T03:56:06.646Z,6.03
2022-07-31T03:58:34.066Z,5.82
2022-07-31T04:01:03.416Z,6.25
2022-07-31T04:03:32.728Z,6.18
2022-07-31T04:06:17.326Z,5.80
2022-07-31T04:08:43.793Z,5.53
2022-07-31T04:11:10.290Z,5.68
2022-07-31T04:13:37.778Z,5.55
2022-07-31T04:16:04.669Z,5.22
2022-07-31T04:18:31.896Z,5.90
2022-07-31T04:20:58.362Z,6.47
2022-07-31T04:23:32.186Z,5.95
2022-07-31T04:26:26.216Z,6.05
2022-07-31T04:29:02.675Z,5.63
2022-07-31T04:31:29.988Z,5.78
2022-07-31T04:33:57.238Z,6.05
2022-07-31T04:36:29.645Z,5.72
2022-07-31T04:38:59.159Z,6.47
2022-07-31T04:41:25.710Z,6.63
2022-07-31T04:43:52.171Z,6.85
2022-07-31T04:46:19.099Z,6.90
2022-07-31T04:48:45.772Z,7.50
2022-07-31T04:51:22.891Z,7.57
2022-07-31T04:53:50.718Z,7.55
2022-07-31T04:56:41.876Z,8.30
2022-07-31T04:59:14.810Z,8.23
2022-07-31T05:01:44.966Z,8.65
2022-07-31T05:04:14.097Z,8.13
2022-07-31T05:06:51.532Z,7.93
2022-07-31T05:09:23.658Z,7.57
2022-07-31T05:11:54.972Z,7.47
2022-07-31T05:14:22.208Z,8.07
2022-07-31T05:16:49.143Z,8.25
2022-07-31T05:19:17.780Z,8.55
2022-07-31T05:22:19.485Z,7.97
2022-07-31T05:25:02.951Z,7.18
2022-07-31T05:27:29.461Z,8.85
2022-07-31T05:29:58.690Z,8.13
2022-07-31T05:32:25.141Z,8.32
2022-07-31T05:34:51.836Z,7.57
2022-07-31T05:37:18.292Z,7.47
2022-07-31T05:39:44.789Z,7.55
2022-07-31T05:42:43.126Z,7.10
2022-07-31T05:45:23.312Z,6.73
2022-07-31T05:47:49.771Z,7.47
2022-07-31T05:50:16.766Z,7.53
2022-07-31T05:52:43.247Z,7.68
2022-07-31T05:55:24.924Z,7.32
2022-07-31T05:58:08.331Z,7.45
2022-07-31T06:00:34.936Z,6.82
2022-07-31T06:03:02.359Z,6.88
2022-07-31T06:06:07.035Z,7.15
2022-07-31T06:08:34.018Z,6.50
2022-07-31T06:11:01.126Z,6.85
2022-07-31T06:13:27.969Z,6.13
2022-07-31T06:15:56.072Z,6.25
2022-07-31T06:18:23.422Z,6.10
2022-07-31T06:20:50.238Z,5.28
2022-07-31T06:23:29.771Z,5.60
2022-07-31T06:26:21.857Z,5.53
2022-07-31T06:28:50.764Z,5.68
2022-07-31T06:31:19.262Z,5.63
2022-07-31T06:33:48.567Z,5.85
2022-07-31T06:38:56.353Z,5.40
2022-07-31T06:41:49.312Z,5.43
2022-07-31T06:44:27.959Z,4.97
2022-07-31T06:47:25.402Z,5.13
2022-07-31T06:50:10.076Z,5.38
2022-07-31T06:52:38.753Z,5.30
2022-07-31T06:55:07.050Z,5.28
2022-07-31T06:57:34.004Z,5.28
2022-07-31T07:00:04.201Z,5.35
2022-07-31T07:02:34.036Z,5.20
2022-07-31T07:05:06.117Z,4.63
2022-07-31T07:07:37.246Z,5.35
2022-07-31T07:10:06.622Z,4.85
2022-07-31T07:12:51.672Z,4.68
2022-07-31T07:15:21.182Z,5.32
2022-07-31T07:17:47.700Z,4.53
2022-07-31T07:20:19.299Z,4.93
2022-07-31T07:22:45.763Z,4.15
2022-07-31T07:25:20.344Z,4.50
2022-07-31T07:27:47.423Z,4.57
2022-07-31T07:30:14.842Z,4.43
2022-07-31T07:32:41.378Z,4.38
2022-07-31T07:35:09.326Z,4.40
2022-07-31T07:37:48.674Z,4.40
2022-07-31T07:40:16.886Z,4.28
2022-07-31T07:42:43.762Z,4.15
2022-07-31T07:45:10.672Z,4.15
2022-07-31T07:47:53.832Z,4.43
2022-07-31T07:50:26.857Z,4.25
2022-07-31T07:53:15.562Z,4.53
2022-07-31T07:56:01.480Z,3.63
2022-07-31T07:58:49.100Z,4.05
2022-07-31T08:01:50.735Z,4.22
2022-07-31T08:04:22.451Z,3.47
2022-07-31T08:06:48.887Z,4.38
2022-07-31T08:09:16.585Z,4.60
2022-07-31T08:12:03.588Z,4.00
2022-07-31T08:14:59.412Z,3.70
2022-07-31T08:17:46.162Z,3.67
2022-07-31T08:20:13.726Z,3.78
2022-07-31T08:22:40.180Z,3.40
2022-07-31T08:25:06.838Z,4.25
2022-07-31T08:27:40.818Z,4.00
2022-07-31T08:30:09.777Z,3.70
2022-07-31T08:32:36.410Z,3.78
2022-07-31T08:35:14.308Z,4.07
2022-07-31T08:37:51.703Z,4.10
2022-07-31T08:40:30.590Z,3.42
2022-07-31T08:42:57.866Z,3.50
2022-07-31T08:45:28.496Z,3.65
2022-07-31T08:48:08.135Z,3.63
2022-07-31T08:50:44.507Z,3.55
2022-07-31T08:53:24.712Z,3.47
2022-07-31T08:56:00.344Z,3.53
2022-07-31T08:58:29.413Z,3.45
2022-07-31T09:00:56.847Z,3.67
2022-07-31T09:03:24.198Z,3.40
2022-07-31T09:05:54.376Z,3.80
2022-07-31T09:08:21.349Z,3.83
2022-07-31T09:11:01.891Z,3.83
2022-07-31T09:13:29.425Z,3.75
2022-07-31T09:15:59.527Z,3.55
2022-07-31T09:18:27.526Z,3.78
2022-07-31T09:21:06.698Z,3.50
2022-07-31T09:23:46.240Z,3.60
2022-07-31T09:26:13.715Z,3.78
2022-07-31T09:28:42.551Z,3.38
2022-07-31T09:31:10.837Z,4.03
2022-07-31T09:33:57.738Z,4.43
2022-07-31T09:36:37.002Z,4.15
2022-07-31T09:39:26.963Z,4.53
2022-07-31T09:42:16.625Z,4.15
2022-07-31T09:44:56.286Z,3.80
2022-07-31T09:47:27.368Z,4.25
2022-07-31T09:50:02.913Z,3.67
2022-07-31T09:52:32.027Z,3.80
2022-07-31T09:55:17.281Z,3.72
2022-07-31T09:57:55.142Z,3.97
2022-07-31T10:00:23.052Z,3.80
2022-07-31T10:02:52.740Z,4.47
2022-07-31T10:05:22.523Z,3.40
2022-07-31T10:07:50.274Z,3.72
2022-07-31T10:10:26.969Z,3.90
2022-07-31T10:13:03.356Z,3.30
2022-07-31T10:15:33.052Z,3.72
2022-07-31T10:18:35.524Z,4.03
2022-07-31T10:24:07.290Z,3.85
2022-07-31T10:26:59.290Z,3.30
2022-07-31T10:29:21.004Z,3.67
2022-07-31T10:31:48.238Z,3.53
2022-07-31T10:34:16.077Z,3.55
2022-07-31T10:37:33.521Z,3.60
2022-07-31T10:40:27.744Z,3.47
2022-07-31T10:43:20.192Z,3.47
2022-07-31T10:46:04.111Z,3.25
2022-07-31T10:48:54.600Z,3.85
2022-07-31T10:51:51.761Z,3.65
2022-07-31T10:54:45.555Z,3.60
2022-07-31T10:57:56.274Z,3.70
2022-07-31T11:00:42.765Z,4.10
2022-07-31T11:03:39.829Z,4.07
2022-07-31T11:06:40.197Z,3.88
2022-07-31T11:09:29.827Z,3.50
2022-07-31T11:12:20.143Z,4.20
2022-07-31T11:14:55.747Z,4.00
2022-07-31T11:18:23.396Z,3.22
2022-07-31T11:20:47.947Z,2.95
2022-07-31T11:23:16.821Z,3.55
2022-07-31T11:25:45.690Z,3.95
2022-07-31T11:28:23.597Z,3.60
2022-07-31T11:30:58.007Z,3.38
2022-07-31T11:33:29.463Z,3.58
2022-07-31T11:36:08.140Z,3.47
2022-07-31T11:38:36.322Z,3.45
2022-07-31T11:41:05.964Z,3.50
2022-07-31T11:43:34.520Z,3.55
2022-07-31T11:46:02.494Z,3.17
2022-07-31T11:48:38.128Z,3.55
2022-07-31T11:51:06.653Z,2.80
2022-07-31T11:53:41.536Z,3.53
2022-07-31T11:56:08.157Z,3.20
2022-07-31T11:58:35.184Z,3.58
2022-07-31T12:01:03.434Z,3.38
2022-07-31T12:03:37.967Z,3.17
2022-07-31T12:06:06.779Z,2.97
2022-07-31T12:08:35.302Z,3.53
2022-07-31T12:11:04.456Z,3.50
2022-07-31T12:13:32.297Z,3.67
2022-07-31T12:16:06.231Z,3.03
2022-07-31T12:18:47.496Z,3.25
2022-07-31T12:21:14.727Z,3.50
2022-07-31T12:23:46.934Z,3.10
2022-07-31T12:26:22.836Z,2.80
2022-07-31T12:29:08.794Z,3.35
2022-07-31T12:31:52.895Z,2.50
2022-07-31T12:34:45.843Z,3.13
2022-07-31T12:37:14.415Z,2.35
2022-07-31T12:39:54.220Z,2.90
2022-07-31T12:42:41.276Z,2.97
2022-07-31T12:45:19.708Z,3.03
2022-07-31T12:47:51.451Z,3.10
2022-07-31T12:50:20.076Z,2.50
2022-07-31T12:52:46.612Z,2.53
2022-07-31T12:55:13.131Z,3.10
2022-07-31T12:57:50.512Z,3.00
2022-07-31T13:00:20.116Z,3.03
2022-07-31T13:02:46.575Z,2.95
2022-07-31T13:05:13.069Z,3.17
2022-07-31T13:07:39.519Z,3.15
2022-07-31T13:10:17.557Z,3.10
2022-07-31T13:12:51.893Z,3.28
2022-07-31T13:15:20.818Z,3.63
2022-07-31T13:17:50.786Z,2.80
2022-07-31T13:20:18.130Z,2.67
2022-07-31T13:22:44.588Z,2.63
2022-07-31T13:25:11.046Z,2.53
2022-07-31T13:27:37.596Z,2.97
2022-07-31T13:30:04.894Z,2.45
2022-07-31T13:32:31.851Z,2.80
2022-07-31T13:35:23.935Z,2.70
2022-07-31T13:37:46.407Z,2.72
2022-07-31T13:40:13.009Z,3.03
2022-07-31T13:42:39.511Z,2.63
2022-07-31T13:45:08.677Z,2.65
2022-07-31T13:47:51.255Z,2.20
2022-07-31T13:50:19.042Z,2.97
2022-07-31T13:52:45.559Z,2.53
2022-07-31T13:55:11.994Z,2.70
2022-07-31T13:57:38.455Z,2.45
2022-07-31T14:00:05.616Z,2.65
2022-07-31T14:02:32.176Z,2.40
2022-07-31T14:04:58.786Z,2.60
2022-07-31T14:07:45.215Z,2.38
2022-07-31T14:10:12.720Z,2.65
2022-07-31T14:12:41.447Z,2.10
2022-07-31T14:15:08.319Z,2.55
2022-07-31T14:17:34.752Z,2.45
2022-07-31T14:20:01.379Z,3.50
2022-07-31T14:22:29.939Z,2.45
2022-07-31T14:24:56.458Z,2.05
2022-07-31T14:27:22.909Z,2.30
2022-07-31T14:29:49.533Z,1.85
2022-07-31T14:32:16.263Z,2.22
2022-07-31T14:34:42.702Z,1.77
2022-07-31T14:37:09.135Z,2.17
2022-07-31T14:39:35.584Z,3.55
2022-07-31T14:42:09.284Z,3.72
2022-07-31T14:44:35.715Z,3.00
2022-07-31T14:47:02.478Z,2.83
2022-07-31T14:50:09.015Z,2.10
2022-07-31T14:52:15.474Z,2.10
2022-07-31T14:54:41.920Z,1.95
2022-07-31T14:57:08.396Z,5.70
2022-07-31T14:59:34.842Z,2.50
2022-07-31T15:02:01.434Z,2.70
2022-07-31T15:04:27.870Z,2.50
2022-07-31T15:07:07.792Z,1.98
2022-07-31T15:09:40.774Z,2.33
2022-07-31T15:12:07.549Z,2.47
2022-07-31T15:14:34.844Z,2.50
2022-07-31T15:17:01.311Z,2.40
2022-07-31T15:19:27.777Z,2.55
2022-07-31T15:22:16.004Z,2.58
2022-07-31T15:24:48.166Z,2.00
2022-07-31T15:27:15.151Z,2.38
2022-07-31T15:30:05.423Z,2.55
2022-07-31T15:32:28.046Z,1.80
2022-07-31T15:34:54.664Z,2.00
2022-07-31T15:37:21.119Z,2.20
2022-07-31T15:40:03.069Z,2.20
2022-07-31T15:42:33.411Z,1.77
2022-07-31T15:45:00.049Z,2.15
2022-07-31T15:47:26.500Z,1.80
2022-07-31T15:49:52.923Z,1.80
2022-07-31T15:52:19.813Z,1.60
2022-07-31T15:54:47.027Z,2.10
2022-07-31T15:57:13.700Z,1.85
2022-07-31T15:59:41.302Z,1.55
2022-07-31T16:02:07.758Z,1.83
2022-07-31T16:04:34.956Z,1.90
2022-07-31T16:08:32.163Z,1.83
2022-07-31T16:10:02.552Z,2.10
2022-07-31T16:12:35.377Z,2.20
2022-07-31T16:15:02.461Z,1.98
2022-07-31T16:17:37.775Z,2.00
2022-07-31T16:20:08.364Z,2.10
2022-07-31T16:22:36.357Z,2.17
2022-07-31T16:25:03.653Z,1.73
2022-07-31T16:27:30.074Z,1.55
2022-07-31T16:29:59.241Z,1.70
2022-07-31T16:32:28.315Z,1.98
2022-07-31T16:34:58.467Z,1.80
2022-07-31T16:37:51.268Z,2.15
2022-07-31T16:40:30.648Z,2.05
2022-07-31T16:43:47.871Z,1.67
2022-07-31T16:45:49.588Z,1.60
2022-07-31T16:48:16.260Z,1.55
2022-07-31T16:50:42.723Z,1.60
2022-07-31T16:53:09.145Z,1.83
2022-07-31T16:55:51.510Z,1.88
2022-07-31T16:58:26.519Z,3.97
2022-07-31T17:00:53.053Z,3.25
2022-07-31T17:03:59.173Z,1.58
2022-07-31T17:06:10.303Z,1.80
2022-07-31T17:08:38.125Z,3.72
2022-07-31T17:11:04.674Z,1.60
2022-07-31T17:13:31.185Z,1.50
2022-07-31T17:15:57.615Z,1.40
2022-07-31T17:18:25.332Z,1.50
2022-07-31T17:20:53.220Z,1.70
2022-07-31T17:26:09.727Z,1.50
2022-07-31T17:28:47.348Z,1.73
2022-07-31T17:31:13.796Z,1.75
2022-07-31T17:33:59.715Z,1.50
2022-07-31T17:36:26.917Z,1.58
2022-07-31T17:38:53.351Z,1.40
2022-07-31T17:41:24.655Z,1.45
2022-07-31T17:43:53.161Z,1.70
2022-07-31T17:46:22.041Z,1.77
2022-07-31T17:48:55.877Z,2.17
2022-07-31T17:51:22.452Z,1.80
2022-07-31T17:53:55.525Z,2.58
2022-07-31T17:56:26.483Z,1.90
2022-07-31T17:58:52.948Z,1.92
2022-07-31T18:01:19.458Z,1.77
2022-07-31T18:03:45.940Z,1.70
2022-07-31T18:06:12.376Z,1.75
2022-07-31T18:08:38.839Z,2.08
2022-07-31T18:11:06.495Z,2.47
2022-07-31T18:13:47.717Z,2.00
2022-07-31T18:16:15.158Z,2.05
2022-07-31T18:18:41.612Z,2.03
2022-07-31T18:21:08.082Z,1.67
2022-07-31T18:23:34.758Z,1.80
2022-07-31T18:26:02.724Z,1.83
2022-07-31T18:28:29.436Z,1.70
2022-07-31T18:30:55.862Z,1.67
2022-07-31T18:33:22.338Z,1.73
2022-07-31T18:35:48.859Z,1.70
2022-07-31T18:38:15.441Z,2.10
2022-07-31T18:40:41.877Z,2.00
2022-07-31T18:43:09.012Z,1.55
2022-07-31T18:45:36.027Z,2.05
2022-07-31T18:48:08.077Z,2.50
2022-07-31T18:51:00.332Z,2.35
2022-07-31T18:53:20.994Z,2.15
2022-07-31T18:55:47.446Z,2.65
2022-07-31T18:58:13.911Z,2.67
2022-07-31T19:00:40.351Z,2.92
2022-07-31T19:03:07.825Z,3.40
2022-07-31T19:05:34.569Z,2.88
2022-07-31T19:08:01.099Z,3.20
2022-07-31T19:10:31.301Z,2.50
2022-07-31T19:12:58.966Z,2.58
2022-07-31T19:15:25.430Z,2.80
2022-07-31T19:17:51.857Z,2.55
2022-07-31T19:20:56.266Z,2.25
2022-07-31T19:23:12.611Z,2.80
2022-07-31T19:26:04.157Z,2.33
2022-07-31T19:28:27.214Z,2.30
2022-07-31T19:30:54.638Z,2.47
2022-07-31T19:33:21.070Z,2.10
2022-07-31T19:35:58.584Z,2.20
2022-07-31T19:38:27.393Z,2.28
2022-07-31T19:40:54.128Z,2.03
2022-07-31T19:43:20.623Z,2.30
2022-07-31T19:46:09.555Z,1.80
2022-07-31T19:48:35.152Z,2.22
2022-07-31T19:51:01.666Z,2.35
2022-07-31T19:53:28.314Z,2.28
2022-07-31T19:55:54.981Z,2.88
2022-07-31T19:58:21.755Z,2.53
2022-07-31T20:00:48.183Z,2.80
2022-07-31T20:03:14.695Z,2.72
2022-07-31T20:05:41.199Z,2.95
2022-07-31T20:08:07.675Z,2.90
2022-07-31T20:10:34.116Z,2.70
2022-07-31T20:13:00.574Z,2.88
2022-07-31T20:15:27.422Z,2.80
2022-07-31T20:18:23.274Z,2.83
2022-07-31T20:20:59.090Z,2.63
2022-07-31T20:23:26.295Z,2.60
2022-07-31T20:25:53.415Z,2.75
2022-07-31T20:28:19.898Z,3.28
2022-07-31T20:30:46.373Z,2.90
2022-07-31T20:33:13.364Z,2.55
2022-07-31T20:35:47.543Z,3.05
2022-07-31T20:38:20.464Z,3.05
2022-07-31T20:43:26.860Z,2.47
2022-07-31T20:45:57.133Z,2.35
2022-07-31T20:48:26.430Z,3.00
2022-07-31T20:50:52.899Z,2.47
2022-07-31T20:53:20.781Z,2.50
2022-07-31T20:55:49.060Z,3.10
2022-07-31T20:58:16.089Z,3.35
2022-07-31T21:00:42.714Z,3.15
2022-07-31T21:03:09.135Z,2.70
2022-07-31T21:05:35.615Z,2.83
2022-07-31T21:08:02.044Z,3.10
2022-07-31T21:10:29.753Z,2.10
2022-07-31T21:12:57.152Z,2.17
2022-07-31T21:15:42.525Z,2.42
2022-07-31T21:18:12.686Z,2.83
2022-07-31T21:20:50.617Z,2.40
2022-07-31T21:23:21.840Z,2.70
2022-07-31T21:25:48.676Z,2.40
2022-07-31T21:28:15.279Z,2.95
2022-07-31T21:30:41.951Z,2.42
2022-07-31T21:33:09.524Z,2.13
2022-07-31T21:35:37.654Z,2.38
2022-07-31T21:38:04.705Z,2.95
2022-07-31T21:40:33.927Z,2.38
2022-07-31T21:43:00.682Z,2.30
2022-07-31T21:45:30.340Z,2.53
2022-07-31T21:48:15.243Z,2.22
2022-07-31T21:50:44.122Z,2.20
2022-07-31T21:53:11.003Z,2.10
2022-07-31T21:55:39.100Z,2.63
2022-07-31T21:58:06.554Z,2.50
2022-07-31T22:00:34.270Z,2.70
2022-07-31T22:03:02.819Z,2.80
2022-07-31T22:05:48.875Z,2.40
2022-07-31T22:08:15.388Z,2.72
2022-07-31T22:10:42.048Z,2.42
2022-07-31T22:13:08.871Z,2.58
2022-07-31T22:15:59.090Z,2.58
2022-07-31T22:18:22.031Z,2.95
2022-07-31T22:20:48.763Z,3.30
2022-07-31T22:23:15.611Z,3.10
2022-07-31T22:25:42.894Z,3.08
2022-07-31T22:28:09.497Z,2.65
2022-07-31T22:30:36.076Z,2.85
2022-07-31T22:33:04.850Z,3.10
2022-07-31T22:35:32.426Z,3.38
2022-07-31T22:37:58.989Z,2.75
2022-07-31T22:40:25.544Z,2.95
2022-07-31T22:42:57.360Z,2.83
2022-07-31T22:45:25.056Z,3.05
2022-07-31T22:47:51.618Z,3.65
2022-07-31T22:50:18.192Z,2.80
2022-07-31T22:52:44.719Z,2.80
2022-07-31T22:55:11.849Z,3.70
2022-07-31T22:57:40.835Z,3.85
2022-07-31T23:00:09.728Z,3.45
2022-07-31T23:02:36.550Z,3.47
2022-07-31T23:05:03.251Z,3.45
2022-07-31T23:07:29.666Z,3.33
2022-07-31T23:09:56.207Z,3.50
2022-07-31T23:12:22.861Z,3.78
2022-07-31T23:14:55.138Z,3.35
2022-07-31T23:17:23.107Z,3.88
2022-07-31T23:19:54.183Z,3.80
2022-07-31T23:25:09.896Z,3.58
2022-07-31T23:27:36.444Z,4.22
2022-07-31T23:30:03.234Z,3.70
2022-07-31T23:32:29.723Z,4.60
2022-07-31T23:34:56.231Z,4.32
2022-07-31T23:37:22.653Z,3.95
2022-07-31T23:39:49.075Z,4.10
2022-07-31T23:42:34.213Z,4.15
2022-07-31T23:45:00.652Z,3.85
2022-07-31T23:47:44.519Z,4.00
2022-07-31T23:50:13.310Z,4.03
2022-07-31T23:52:39.735Z,4.20
2022-07-31T23:55:06.413Z,3.78
2022-07-31T23:57:34.676Z,4.38
